sensor_id;sensor_type;location;lat;lon;timestamp;temperature;humidity
3678;DHT22;1855;50.934;6.958;2023-01-23T00:01:12;2.60;99.90
3678;DHT22;1855;50.934;6.958;2023-01-23T00:03:39;2.60;99.90
3678;DHT22;1855;50.934;6.958;2023-01-23T00:06:08;2.60;99.90
3678;DHT22;1855;50.934;6.958;2023-01-23T00:08:36;2.60;99.90
3678;DHT22;1855;50.934;6.958;2023-01-23T00:11:04;2.50;99.90
3678;DHT22;1855;50.934;6.958;2023-01-23T00:13:31;2.50;99.90
3678;DHT22;1855;50.934;6.958;2023-01-23T00:16:02;2.50;99.90
3678;DHT22;1855;50.934;6.958;2023-01-23T00:18:29;2.50;99.90
3678;DHT22;1855;50.934;6.958;2023-01-23T00:20:56;2.50;99.90
3678;DHT22;1855;50.934;6.958;2023-01-23T00:23:23;2.50;99.90
3678;DHT22;1855;50.934;6.958;2023-01-23T00:25:50;2.50;99.90
3678;DHT22;1855;50.934;6.958;2023-01-23T00:28:17;2.50;99.90
3678;DHT22;1855;50.934;6.958;2023-01-23T00:30:43;2.50;99.90
3678;DHT22;1855;50.934;6.958;2023-01-23T00:33:11;2.50;99.90
3678;DHT22;1855;50.934;6.958;2023-01-23T00:35:38;2.50;99.90
3678;DHT22;1855;50.934;6.958;2023-01-23T00:38:05;2.50;99.90
3678;DHT22;1855;50.934;6.958;2023-01-23T00:40:32;2.50;99.90
3678;DHT22;1855;50.934;6.958;2023-01-23T00:42:59;2.40;99.90
3678;DHT22;1855;50.934;6.958;2023-01-23T00:45:26;2.40;99.90
3678;DHT22;1855;50.934;6.958;2023-01-23T00:47:52;2.50;99.90
3678;DHT22;1855;50.934;6.958;2023-01-23T00:50:20;2.40;99.90
3678;DHT22;1855;50.934;6.958;2023-01-23T00:52:47;2.50;99.90
3678;DHT22;1855;50.934;6.958;2023-01-23T00:55:14;2.50;99.90
3678;DHT22;1855;50.934;6.958;2023-01-23T00:57:41;2.40;99.90
3678;DHT22;1855;50.934;6.958;2023-01-23T01:00:09;2.40;99.90
3678;DHT22;1855;50.934;6.958;2023-01-23T01:02:35;2.40;99.90
3678;DHT22;1855;50.934;6.958;2023-01-23T01:05:02;2.40;99.90
3678;DHT22;1855;50.934;6.958;2023-01-23T01:07:30;2.40;99.90
3678;DHT22;1855;50.934;6.958;2023-01-23T01:09:57;2.40;99.90
3678;DHT22;1855;50.934;6.958;2023-01-23T01:12:24;2.40;99.90
3678;DHT22;1855;50.934;6.958;2023-01-23T01:14:50;2.40;99.90
3678;DHT22;1855;50.934;6.958;2023-01-23T01:17:17;2.40;99.90
3678;DHT22;1855;50.934;6.958;2023-01-23T01:19:44;2.40;99.90
3678;DHT22;1855;50.934;6.958;2023-01-23T01:22:11;2.50;99.90
3678;DHT22;1855;50.934;6.958;2023-01-23T01:24:40;2.40;99.90
3678;DHT22;1855;50.934;6.958;2023-01-23T01:27:07;2.50;99.90
3678;DHT22;1855;50.934;6.958;2023-01-23T01:29:33;2.50;99.90
3678;DHT22;1855;50.934;6.958;2023-01-23T01:32:00;2.50;99.90
3678;DHT22;1855;50.934;6.958;2023-01-23T01:34:27;2.50;99.90
3678;DHT22;1855;50.934;6.958;2023-01-23T01:36:53;2.50;99.90
3678;DHT22;1855;50.934;6.958;2023-01-23T01:39:20;2.50;99.90
3678;DHT22;1855;50.934;6.958;2023-01-23T01:41:48;2.50;99.90
3678;DHT22;1855;50.934;6.958;2023-01-23T01:44:16;2.60;99.90
3678;DHT22;1855;50.934;6.958;2023-01-23T01:46:44;2.60;99.90
3678;DHT22;1855;50.934;6.958;2023-01-23T01:49:13;2.60;99.90
3678;DHT22;1855;50.934;6.958;2023-01-23T01:51:44;2.60;99.90
3678;DHT22;1855;50.934;6.958;2023-01-23T01:54:18;2.60;99.90
3678;DHT22;1855;50.934;6.958;2023-01-23T01:56:50;2.60;99.90
3678;DHT22;1855;50.934;6.958;2023-01-23T01:59:18;2.60;99.90
3678;DHT22;1855;50.934;6.958;2023-01-23T02:01:50;2.60;99.90
3678;DHT22;1855;50.934;6.958;2023-01-23T02:04:17;2.60;99.90
3678;DHT22;1855;50.934;6.958;2023-01-23T02:06:45;2.60;99.90
3678;DHT22;1855;50.934;6.958;2023-01-23T02:09:17;2.50;99.90
3678;DHT22;1855;50.934;6.958;2023-01-23T02:11:45;2.50;99.90
3678;DHT22;1855;50.934;6.958;2023-01-23T02:14:13;2.50;99.90
3678;DHT22;1855;50.934;6.958;2023-01-23T02:16:40;2.50;99.90
3678;DHT22;1855;50.934;6.958;2023-01-23T02:19:17;2.50;99.90
3678;DHT22;1855;50.934;6.958;2023-01-23T02:21:46;2.50;99.90
3678;DHT22;1855;50.934;6.958;2023-01-23T02:24:19;2.50;99.90
3678;DHT22;1855;50.934;6.958;2023-01-23T02:26:50;2.50;99.90
3678;DHT22;1855;50.934;6.958;2023-01-23T02:29:17;2.50;99.90
3678;DHT22;1855;50.934;6.958;2023-01-23T02:31:45;2.50;99.90
3678;DHT22;1855;50.934;6.958;2023-01-23T02:34:14;2.50;99.90
3678;DHT22;1855;50.934;6.958;2023-01-23T02:36:44;2.50;99.90
3678;DHT22;1855;50.934;6.958;2023-01-23T02:39:13;2.50;99.90
3678;DHT22;1855;50.934;6.958;2023-01-23T02:41:42;2.50;99.90
3678;DHT22;1855;50.934;6.958;2023-01-23T02:44:15;2.50;99.90
3678;DHT22;1855;50.934;6.958;2023-01-23T02:46:42;2.40;99.90
3678;DHT22;1855;50.934;6.958;2023-01-23T02:49:09;2.40;99.90
3678;DHT22;1855;50.934;6.958;2023-01-23T02:51:36;2.40;99.90
3678;DHT22;1855;50.934;6.958;2023-01-23T02:54:03;2.50;99.90
3678;DHT22;1855;50.934;6.958;2023-01-23T02:56:30;2.50;99.90
3678;DHT22;1855;50.934;6.958;2023-01-23T02:58:58;2.50;99.90
3678;DHT22;1855;50.934;6.958;2023-01-23T03:01:44;2.50;99.90
3678;DHT22;1855;50.934;6.958;2023-01-23T03:04:10;2.50;99.90
3678;DHT22;1855;50.934;6.958;2023-01-23T03:06:37;2.40;99.90
3678;DHT22;1855;50.934;6.958;2023-01-23T03:09:07;2.40;99.90
3678;DHT22;1855;50.934;6.958;2023-01-23T03:11:36;2.40;99.90
3678;DHT22;1855;50.934;6.958;2023-01-23T03:14:03;2.30;99.90
3678;DHT22;1855;50.934;6.958;2023-01-23T03:16:31;2.30;99.90
3678;DHT22;1855;50.934;6.958;2023-01-23T03:19:00;2.30;99.90
3678;DHT22;1855;50.934;6.958;2023-01-23T03:21:30;2.30;99.90
3678;DHT22;1855;50.934;6.958;2023-01-23T03:23:57;2.30;99.90
3678;DHT22;1855;50.934;6.958;2023-01-23T03:26:24;2.30;99.90
3678;DHT22;1855;50.934;6.958;2023-01-23T03:28:51;2.40;99.90
3678;DHT22;1855;50.934;6.958;2023-01-23T03:31:35;2.40;99.90
3678;DHT22;1855;50.934;6.958;2023-01-23T03:34:03;2.30;99.90
3678;DHT22;1855;50.934;6.958;2023-01-23T03:36:30;2.30;99.90
3678;DHT22;1855;50.934;6.958;2023-01-23T03:38:57;2.30;99.90
3678;DHT22;1855;50.934;6.958;2023-01-23T03:41:41;2.20;99.90
3678;DHT22;1855;50.934;6.958;2023-01-23T03:44:10;2.10;99.90
3678;DHT22;1855;50.934;6.958;2023-01-23T03:46:37;2.00;99.90
3678;DHT22;1855;50.934;6.958;2023-01-23T03:49:05;1.90;99.90
3678;DHT22;1855;50.934;6.958;2023-01-23T03:51:32;1.80;99.90
3678;DHT22;1855;50.934;6.958;2023-01-23T03:53:58;1.80;99.90
3678;DHT22;1855;50.934;6.958;2023-01-23T03:56:25;1.80;99.90
3678;DHT22;1855;50.934;6.958;2023-01-23T03:58:52;1.80;99.90
3678;DHT22;1855;50.934;6.958;2023-01-23T04:01:19;1.70;99.90
3678;DHT22;1855;50.934;6.958;2023-01-23T04:03:46;1.70;99.90
3678;DHT22;1855;50.934;6.958;2023-01-23T04:06:14;1.70;99.90
3678;DHT22;1855;50.934;6.958;2023-01-23T04:08:40;1.80;99.90
3678;DHT22;1855;50.934;6.958;2023-01-23T04:11:09;1.80;99.90
3678;DHT22;1855;50.934;6.958;2023-01-23T04:13:36;1.80;99.90
3678;DHT22;1855;50.934;6.958;2023-01-23T04:16:04;1.90;99.90
3678;DHT22;1855;50.934;6.958;2023-01-23T04:18:31;2.00;99.90
3678;DHT22;1855;50.934;6.958;2023-01-23T04:20:59;2.00;99.90
3678;DHT22;1855;50.934;6.958;2023-01-23T04:23:27;2.00;99.90
3678;DHT22;1855;50.934;6.958;2023-01-23T04:25:53;2.00;99.90
3678;DHT22;1855;50.934;6.958;2023-01-23T04:28:20;2.00;99.90
3678;DHT22;1855;50.934;6.958;2023-01-23T04:30:48;2.00;99.90
3678;DHT22;1855;50.934;6.958;2023-01-23T04:33:15;1.90;99.90
3678;DHT22;1855;50.934;6.958;2023-01-23T04:35:48;1.80;99.90
3678;DHT22;1855;50.934;6.958;2023-01-23T04:38:15;1.70;99.90
3678;DHT22;1855;50.934;6.958;2023-01-23T04:40:45;1.60;99.90
3678;DHT22;1855;50.934;6.958;2023-01-23T04:43:12;1.60;99.90
3678;DHT22;1855;50.934;6.958;2023-01-23T04:45:39;1.70;99.90
3678;DHT22;1855;50.934;6.958;2023-01-23T04:48:05;1.70;99.90
3678;DHT22;1855;50.934;6.958;2023-01-23T04:50:32;1.70;99.90
3678;DHT22;1855;50.934;6.958;2023-01-23T04:52:59;1.80;99.90
3678;DHT22;1855;50.934;6.958;2023-01-23T04:55:26;1.80;99.90
3678;DHT22;1855;50.934;6.958;2023-01-23T04:57:54;1.80;99.90
3678;DHT22;1855;50.934;6.958;2023-01-23T05:00:21;1.90;99.90
3678;DHT22;1855;50.934;6.958;2023-01-23T05:02:49;1.90;99.90
3678;DHT22;1855;50.934;6.958;2023-01-23T05:05:16;1.90;99.90
3678;DHT22;1855;50.934;6.958;2023-01-23T05:07:45;1.90;99.90
3678;DHT22;1855;50.934;6.958;2023-01-23T05:10:13;1.80;99.90
3678;DHT22;1855;50.934;6.958;2023-01-23T05:12:40;1.70;99.90
3678;DHT22;1855;50.934;6.958;2023-01-23T05:15:10;1.60;99.90
3678;DHT22;1855;50.934;6.958;2023-01-23T05:17:37;1.50;99.90
3678;DHT22;1855;50.934;6.958;2023-01-23T05:20:05;1.40;99.90
3678;DHT22;1855;50.934;6.958;2023-01-23T05:22:32;1.30;99.90
3678;DHT22;1855;50.934;6.958;2023-01-23T05:24:58;1.20;99.90
3678;DHT22;1855;50.934;6.958;2023-01-23T05:27:25;1.10;99.90
3678;DHT22;1855;50.934;6.958;2023-01-23T05:29:52;1.00;99.90
3678;DHT22;1855;50.934;6.958;2023-01-23T05:32:20;0.90;99.90
3678;DHT22;1855;50.934;6.958;2023-01-23T05:34:47;0.80;99.90
3678;DHT22;1855;50.934;6.958;2023-01-23T05:37:13;0.80;99.90
3678;DHT22;1855;50.934;6.958;2023-01-23T05:39:40;0.70;99.90
3678;DHT22;1855;50.934;6.958;2023-01-23T05:42:07;0.70;99.90
3678;DHT22;1855;50.934;6.958;2023-01-23T05:44:34;0.70;99.90
3678;DHT22;1855;50.934;6.958;2023-01-23T05:47:00;0.70;99.90
3678;DHT22;1855;50.934;6.958;2023-01-23T05:49:28;0.80;99.90
3678;DHT22;1855;50.934;6.958;2023-01-23T05:51:55;0.90;99.90
3678;DHT22;1855;50.934;6.958;2023-01-23T05:54:22;1.00;99.90
3678;DHT22;1855;50.934;6.958;2023-01-23T05:56:49;1.00;99.90
3678;DHT22;1855;50.934;6.958;2023-01-23T05:59:15;1.10;99.90
3678;DHT22;1855;50.934;6.958;2023-01-23T06:01:42;1.10;99.90
3678;DHT22;1855;50.934;6.958;2023-01-23T06:04:09;1.00;99.90
3678;DHT22;1855;50.934;6.958;2023-01-23T06:06:47;0.90;99.90
3678;DHT22;1855;50.934;6.958;2023-01-23T06:09:14;0.90;99.90
3678;DHT22;1855;50.934;6.958;2023-01-23T06:11:49;0.80;99.90
3678;DHT22;1855;50.934;6.958;2023-01-23T06:14:16;0.80;99.90
3678;DHT22;1855;50.934;6.958;2023-01-23T06:16:42;0.70;99.90
3678;DHT22;1855;50.934;6.958;2023-01-23T06:19:09;0.70;99.90
3678;DHT22;1855;50.934;6.958;2023-01-23T06:21:36;0.60;99.90
3678;DHT22;1855;50.934;6.958;2023-01-23T06:24:04;0.50;99.90
3678;DHT22;1855;50.934;6.958;2023-01-23T06:26:31;0.50;99.90
3678;DHT22;1855;50.934;6.958;2023-01-23T06:28:58;0.50;99.90
3678;DHT22;1855;50.934;6.958;2023-01-23T06:31:25;0.40;99.90
3678;DHT22;1855;50.934;6.958;2023-01-23T06:33:53;0.40;99.90
3678;DHT22;1855;50.934;6.958;2023-01-23T06:36:19;0.50;99.90
3678;DHT22;1855;50.934;6.958;2023-01-23T06:38:46;0.60;99.90
3678;DHT22;1855;50.934;6.958;2023-01-23T06:41:14;0.70;99.90
3678;DHT22;1855;50.934;6.958;2023-01-23T06:43:42;0.90;99.90
3678;DHT22;1855;50.934;6.958;2023-01-23T06:46:09;1.00;99.90
3678;DHT22;1855;50.934;6.958;2023-01-23T06:48:36;1.10;99.90
3678;DHT22;1855;50.934;6.958;2023-01-23T06:51:04;1.30;99.90
3678;DHT22;1855;50.934;6.958;2023-01-23T06:53:31;1.40;99.90
3678;DHT22;1855;50.934;6.958;2023-01-23T06:55:59;1.50;99.90
3678;DHT22;1855;50.934;6.958;2023-01-23T06:58:27;1.60;99.90
3678;DHT22;1855;50.934;6.958;2023-01-23T07:00:54;1.60;99.90
3678;DHT22;1855;50.934;6.958;2023-01-23T07:03:21;1.70;99.90
3678;DHT22;1855;50.934;6.958;2023-01-23T07:05:49;1.70;99.90
3678;DHT22;1855;50.934;6.958;2023-01-23T07:08:15;1.70;99.90
3678;DHT22;1855;50.934;6.958;2023-01-23T07:10:42;1.70;99.90
3678;DHT22;1855;50.934;6.958;2023-01-23T07:13:10;1.70;99.90
3678;DHT22;1855;50.934;6.958;2023-01-23T07:15:38;1.80;99.90
3678;DHT22;1855;50.934;6.958;2023-01-23T07:18:05;1.80;99.90
3678;DHT22;1855;50.934;6.958;2023-01-23T07:20:32;1.80;99.90
3678;DHT22;1855;50.934;6.958;2023-01-23T07:22:58;1.80;99.90
3678;DHT22;1855;50.934;6.958;2023-01-23T07:25:25;1.80;99.90
3678;DHT22;1855;50.934;6.958;2023-01-23T07:28:00;1.80;99.90
3678;DHT22;1855;50.934;6.958;2023-01-23T07:30:27;1.90;99.90
3678;DHT22;1855;50.934;6.958;2023-01-23T07:32:55;1.90;99.90
3678;DHT22;1855;50.934;6.958;2023-01-23T07:35:22;1.90;99.90
3678;DHT22;1855;50.934;6.958;2023-01-23T07:37:49;1.90;99.90
3678;DHT22;1855;50.934;6.958;2023-01-23T07:40:16;1.90;99.90
3678;DHT22;1855;50.934;6.958;2023-01-23T07:42:43;1.90;99.90
3678;DHT22;1855;50.934;6.958;2023-01-23T07:45:11;2.00;99.90
3678;DHT22;1855;50.934;6.958;2023-01-23T07:47:38;2.00;99.90
3678;DHT22;1855;50.934;6.958;2023-01-23T07:50:08;2.00;99.90
3678;DHT22;1855;50.934;6.958;2023-01-23T07:52:36;2.00;99.90
3678;DHT22;1855;50.934;6.958;2023-01-23T07:55:05;2.10;99.90
3678;DHT22;1855;50.934;6.958;2023-01-23T07:57:31;2.10;99.90
3678;DHT22;1855;50.934;6.958;2023-01-23T07:59:59;2.10;99.90
3678;DHT22;1855;50.934;6.958;2023-01-23T08:02:26;2.20;99.90
3678;DHT22;1855;50.934;6.958;2023-01-23T08:04:52;2.20;99.90
3678;DHT22;1855;50.934;6.958;2023-01-23T08:07:21;2.30;99.90
3678;DHT22;1855;50.934;6.958;2023-01-23T08:09:48;2.30;99.90
3678;DHT22;1855;50.934;6.958;2023-01-23T08:12:15;2.30;99.90
3678;DHT22;1855;50.934;6.958;2023-01-23T08:14:41;2.40;99.90
3678;DHT22;1855;50.934;6.958;2023-01-23T08:17:15;2.40;99.90
3678;DHT22;1855;50.934;6.958;2023-01-23T08:19:42;2.50;99.90
3678;DHT22;1855;50.934;6.958;2023-01-23T08:22:08;2.50;99.90
3678;DHT22;1855;50.934;6.958;2023-01-23T08:24:37;2.60;99.90
3678;DHT22;1855;50.934;6.958;2023-01-23T08:27:03;2.60;99.90
3678;DHT22;1855;50.934;6.958;2023-01-23T08:29:30;2.70;99.90
3678;DHT22;1855;50.934;6.958;2023-01-23T08:31:57;2.70;99.90
3678;DHT22;1855;50.934;6.958;2023-01-23T08:34:24;2.80;99.90
3678;DHT22;1855;50.934;6.958;2023-01-23T08:36:51;2.80;99.90
3678;DHT22;1855;50.934;6.958;2023-01-23T08:39:18;2.90;99.90
3678;DHT22;1855;50.934;6.958;2023-01-23T08:41:46;2.90;99.90
3678;DHT22;1855;50.934;6.958;2023-01-23T08:44:13;3.00;99.90
3678;DHT22;1855;50.934;6.958;2023-01-23T08:46:40;3.10;99.90
3678;DHT22;1855;50.934;6.958;2023-01-23T08:49:07;3.10;99.90
3678;DHT22;1855;50.934;6.958;2023-01-23T08:51:34;3.10;99.90
3678;DHT22;1855;50.934;6.958;2023-01-23T08:54:01;3.10;99.90
3678;DHT22;1855;50.934;6.958;2023-01-23T08:56:27;3.20;99.90
3678;DHT22;1855;50.934;6.958;2023-01-23T08:58:56;3.20;99.90
3678;DHT22;1855;50.934;6.958;2023-01-23T09:01:24;3.20;99.90
3678;DHT22;1855;50.934;6.958;2023-01-23T09:03:52;3.20;99.90
3678;DHT22;1855;50.934;6.958;2023-01-23T09:06:20;3.20;99.90
3678;DHT22;1855;50.934;6.958;2023-01-23T09:08:48;3.30;99.90
3678;DHT22;1855;50.934;6.958;2023-01-23T09:11:16;3.30;99.90
3678;DHT22;1855;50.934;6.958;2023-01-23T09:13:44;3.30;99.90
3678;DHT22;1855;50.934;6.958;2023-01-23T09:16:13;3.30;99.90
3678;DHT22;1855;50.934;6.958;2023-01-23T09:18:40;3.40;99.90
3678;DHT22;1855;50.934;6.958;2023-01-23T09:21:08;3.40;99.90
3678;DHT22;1855;50.934;6.958;2023-01-23T09:23:36;3.40;99.90
3678;DHT22;1855;50.934;6.958;2023-01-23T09:26:03;3.40;99.90
3678;DHT22;1855;50.934;6.958;2023-01-23T09:28:31;3.40;99.90
3678;DHT22;1855;50.934;6.958;2023-01-23T09:31:01;3.40;99.90
3678;DHT22;1855;50.934;6.958;2023-01-23T09:33:30;3.40;99.90
3678;DHT22;1855;50.934;6.958;2023-01-23T09:35:57;3.40;99.90
3678;DHT22;1855;50.934;6.958;2023-01-23T09:38:24;3.40;99.90
3678;DHT22;1855;50.934;6.958;2023-01-23T09:40:53;3.50;99.90
3678;DHT22;1855;50.934;6.958;2023-01-23T09:43:23;3.50;99.90
3678;DHT22;1855;50.934;6.958;2023-01-23T09:45:57;3.50;99.90
3678;DHT22;1855;50.934;6.958;2023-01-23T09:48:31;3.50;99.90
3678;DHT22;1855;50.934;6.958;2023-01-23T09:51:02;3.50;99.90
3678;DHT22;1855;50.934;6.958;2023-01-23T09:53:35;3.50;99.90
3678;DHT22;1855;50.934;6.958;2023-01-23T09:56:09;3.60;99.90
3678;DHT22;1855;50.934;6.958;2023-01-23T09:58:44;3.60;99.90
3678;DHT22;1855;50.934;6.958;2023-01-23T10:01:12;3.60;99.90
3678;DHT22;1855;50.934;6.958;2023-01-23T10:03:40;3.60;99.90
3678;DHT22;1855;50.934;6.958;2023-01-23T10:06:17;3.70;99.90
3678;DHT22;1855;50.934;6.958;2023-01-23T10:08:54;3.70;99.80
3678;DHT22;1855;50.934;6.958;2023-01-23T10:11:30;3.70;99.90
3678;DHT22;1855;50.934;6.958;2023-01-23T10:14:13;3.70;99.90
3678;DHT22;1855;50.934;6.958;2023-01-23T10:17:11;3.70;99.70
3678;DHT22;1855;50.934;6.958;2023-01-23T10:20:02;3.70;99.60
3678;DHT22;1855;50.934;6.958;2023-01-23T10:22:40;3.70;99.40
3678;DHT22;1855;50.934;6.958;2023-01-23T10:25:15;3.70;99.50
3678;DHT22;1855;50.934;6.958;2023-01-23T10:27:45;3.80;99.50
3678;DHT22;1855;50.934;6.958;2023-01-23T10:30:24;3.90;99.00
3678;DHT22;1855;50.934;6.958;2023-01-23T10:32:56;4.00;98.90
3678;DHT22;1855;50.934;6.958;2023-01-23T10:35:30;4.00;98.50
3678;DHT22;1855;50.934;6.958;2023-01-23T10:38:01;4.10;98.60
3678;DHT22;1855;50.934;6.958;2023-01-23T10:40:30;4.30;98.20
3678;DHT22;1855;50.934;6.958;2023-01-23T10:43:16;4.30;97.90
3678;DHT22;1855;50.934;6.958;2023-01-23T10:45:44;4.40;97.90
3678;DHT22;1855;50.934;6.958;2023-01-23T10:48:37;4.40;97.40
3678;DHT22;1855;50.934;6.958;2023-01-23T10:51:23;4.50;97.00
3678;DHT22;1855;50.934;6.958;2023-01-23T10:54:04;4.60;96.50
3678;DHT22;1855;50.934;6.958;2023-01-23T10:56:32;4.60;96.40
3678;DHT22;1855;50.934;6.958;2023-01-23T10:59:00;4.70;96.50
3678;DHT22;1855;50.934;6.958;2023-01-23T11:01:29;4.70;95.90
3678;DHT22;1855;50.934;6.958;2023-01-23T11:04:08;4.70;96.10
3678;DHT22;1855;50.934;6.958;2023-01-23T11:06:37;4.70;96.10
3678;DHT22;1855;50.934;6.958;2023-01-23T11:09:18;4.80;96.20
3678;DHT22;1855;50.934;6.958;2023-01-23T11:12:02;4.90;95.90
3678;DHT22;1855;50.934;6.958;2023-01-23T11:14:29;5.00;95.40
3678;DHT22;1855;50.934;6.958;2023-01-23T11:17:11;5.20;94.90
3678;DHT22;1855;50.934;6.958;2023-01-23T11:19:40;5.30;95.10
3678;DHT22;1855;50.934;6.958;2023-01-23T11:22:24;5.50;94.20
3678;DHT22;1855;50.934;6.958;2023-01-23T11:24:52;5.60;93.30
3678;DHT22;1855;50.934;6.958;2023-01-23T11:27:20;5.60;93.10
3678;DHT22;1855;50.934;6.958;2023-01-23T11:30:25;5.60;93.20
3678;DHT22;1855;50.934;6.958;2023-01-23T11:32:57;5.60;93.20
3678;DHT22;1855;50.934;6.958;2023-01-23T11:35:31;5.60;92.80
3678;DHT22;1855;50.934;6.958;2023-01-23T11:38:05;5.50;93.10
3678;DHT22;1855;50.934;6.958;2023-01-23T11:40:32;5.50;93.00
3678;DHT22;1855;50.934;6.958;2023-01-23T11:42:58;5.50;92.90
3678;DHT22;1855;50.934;6.958;2023-01-23T11:45:36;5.50;92.90
3678;DHT22;1855;50.934;6.958;2023-01-23T11:48:21;5.40;92.90
3678;DHT22;1855;50.934;6.958;2023-01-23T11:50:50;5.40;93.00
3678;DHT22;1855;50.934;6.958;2023-01-23T11:53:24;5.40;92.90
3678;DHT22;1855;50.934;6.958;2023-01-23T11:56:15;5.40;92.80
3678;DHT22;1855;50.934;6.958;2023-01-23T12:02:01;5.30;92.00
3678;DHT22;1855;50.934;6.958;2023-01-23T12:04:38;5.40;91.50
3678;DHT22;1855;50.934;6.958;2023-01-23T12:07:16;5.40;91.20
3678;DHT22;1855;50.934;6.958;2023-01-23T12:09:55;5.40;90.80
3678;DHT22;1855;50.934;6.958;2023-01-23T12:12:44;5.40;90.10
3678;DHT22;1855;50.934;6.958;2023-01-23T12:15:21;5.40;89.50
3678;DHT22;1855;50.934;6.958;2023-01-23T12:17:55;5.50;88.40
3678;DHT22;1855;50.934;6.958;2023-01-23T12:23:28;5.40;87.30
3678;DHT22;1855;50.934;6.958;2023-01-23T12:26:06;5.40;87.10
3678;DHT22;1855;50.934;6.958;2023-01-23T12:29:25;5.30;87.90
3678;DHT22;1855;50.934;6.958;2023-01-23T12:32:14;5.30;87.50
3678;DHT22;1855;50.934;6.958;2023-01-23T12:35:05;5.10;85.70
3678;DHT22;1855;50.934;6.958;2023-01-23T12:37:50;5.00;84.20
3678;DHT22;1855;50.934;6.958;2023-01-23T12:40:23;4.90;84.00
3678;DHT22;1855;50.934;6.958;2023-01-23T12:42:58;4.90;84.00
3678;DHT22;1855;50.934;6.958;2023-01-23T12:45:28;4.80;85.40
3678;DHT22;1855;50.934;6.958;2023-01-23T12:48:01;4.90;86.10
3678;DHT22;1855;50.934;6.958;2023-01-23T12:50:38;5.00;86.90
3678;DHT22;1855;50.934;6.958;2023-01-23T12:53:09;5.10;87.20
3678;DHT22;1855;50.934;6.958;2023-01-23T12:55:39;5.10;85.40
3678;DHT22;1855;50.934;6.958;2023-01-23T12:58:14;5.10;85.90
3678;DHT22;1855;50.934;6.958;2023-01-23T13:00:51;5.10;85.20
3678;DHT22;1855;50.934;6.958;2023-01-23T13:09:04;5.20;85.80
3678;DHT22;1855;50.934;6.958;2023-01-23T13:11:41;5.20;86.20
3678;DHT22;1855;50.934;6.958;2023-01-23T13:14:22;5.10;85.70
3678;DHT22;1855;50.934;6.958;2023-01-23T13:16:51;5.10;86.00
3678;DHT22;1855;50.934;6.958;2023-01-23T13:19:23;5.20;86.90
3678;DHT22;1855;50.934;6.958;2023-01-23T13:22:22;5.20;85.90
3678;DHT22;1855;50.934;6.958;2023-01-23T13:24:50;5.10;84.10
3678;DHT22;1855;50.934;6.958;2023-01-23T13:27:43;5.00;85.20
3678;DHT22;1855;50.934;6.958;2023-01-23T13:30:37;5.00;86.30
3678;DHT22;1855;50.934;6.958;2023-01-23T13:36:24;5.00;86.10
3678;DHT22;1855;50.934;6.958;2023-01-23T13:39:23;5.00;86.60
3678;DHT22;1855;50.934;6.958;2023-01-23T13:45:13;5.00;85.80
3678;DHT22;1855;50.934;6.958;2023-01-23T13:47:48;5.10;85.30
3678;DHT22;1855;50.934;6.958;2023-01-23T13:50:35;5.10;85.60
3678;DHT22;1855;50.934;6.958;2023-01-23T13:53:14;5.10;85.10
3678;DHT22;1855;50.934;6.958;2023-01-23T13:56:00;5.10;84.50
3678;DHT22;1855;50.934;6.958;2023-01-23T13:58:47;5.10;84.70
3678;DHT22;1855;50.934;6.958;2023-01-23T14:01:17;5.10;84.90
3678;DHT22;1855;50.934;6.958;2023-01-23T14:04:17;5.20;85.20
3678;DHT22;1855;50.934;6.958;2023-01-23T14:07:02;5.20;84.20
3678;DHT22;1855;50.934;6.958;2023-01-23T14:09:31;5.20;86.10
3678;DHT22;1855;50.934;6.958;2023-01-23T14:11:59;5.30;85.10
3678;DHT22;1855;50.934;6.958;2023-01-23T14:14:32;5.30;84.20
3678;DHT22;1855;50.934;6.958;2023-01-23T14:17:17;5.30;83.30
3678;DHT22;1855;50.934;6.958;2023-01-23T14:19:54;5.20;83.30
3678;DHT22;1855;50.934;6.958;2023-01-23T14:22:21;5.30;84.80
3678;DHT22;1855;50.934;6.958;2023-01-23T14:24:50;5.30;84.40
3678;DHT22;1855;50.934;6.958;2023-01-23T14:27:20;5.40;84.30
3678;DHT22;1855;50.934;6.958;2023-01-23T14:29:57;5.40;82.90
3678;DHT22;1855;50.934;6.958;2023-01-23T14:32:26;5.40;83.40
3678;DHT22;1855;50.934;6.958;2023-01-23T14:34:54;5.40;83.20
3678;DHT22;1855;50.934;6.958;2023-01-23T14:37:22;5.40;82.40
3678;DHT22;1855;50.934;6.958;2023-01-23T14:39:49;5.40;83.20
3678;DHT22;1855;50.934;6.958;2023-01-23T14:42:22;5.40;84.00
3678;DHT22;1855;50.934;6.958;2023-01-23T14:44:50;5.30;84.20
3678;DHT22;1855;50.934;6.958;2023-01-23T14:47:21;5.30;84.70
3678;DHT22;1855;50.934;6.958;2023-01-23T14:49:49;5.30;85.20
3678;DHT22;1855;50.934;6.958;2023-01-23T14:52:22;5.30;84.60
3678;DHT22;1855;50.934;6.958;2023-01-23T14:54:50;5.30;84.80
3678;DHT22;1855;50.934;6.958;2023-01-23T14:57:17;5.20;84.80
3678;DHT22;1855;50.934;6.958;2023-01-23T14:59:46;5.10;85.60
3678;DHT22;1855;50.934;6.958;2023-01-23T15:02:26;5.10;84.90
3678;DHT22;1855;50.934;6.958;2023-01-23T15:05:16;5.00;85.40
3678;DHT22;1855;50.934;6.958;2023-01-23T15:07:46;5.00;86.50
3678;DHT22;1855;50.934;6.958;2023-01-23T15:10:15;5.00;87.80
3678;DHT22;1855;50.934;6.958;2023-01-23T15:12:48;4.90;89.40
3678;DHT22;1855;50.934;6.958;2023-01-23T15:15:16;4.90;90.50
3678;DHT22;1855;50.934;6.958;2023-01-23T15:17:44;4.80;91.10
3678;DHT22;1855;50.934;6.958;2023-01-23T15:20:27;4.80;91.60
3678;DHT22;1855;50.934;6.958;2023-01-23T15:23:17;4.70;92.40
3678;DHT22;1855;50.934;6.958;2023-01-23T15:25:46;4.60;92.70
3678;DHT22;1855;50.934;6.958;2023-01-23T15:28:28;4.60;92.90
3678;DHT22;1855;50.934;6.958;2023-01-23T15:30:55;4.50;93.10
3678;DHT22;1855;50.934;6.958;2023-01-23T15:33:24;4.50;93.50
3678;DHT22;1855;50.934;6.958;2023-01-23T15:36:00;4.40;93.90
3678;DHT22;1855;50.934;6.958;2023-01-23T15:38:29;4.40;94.30
3678;DHT22;1855;50.934;6.958;2023-01-23T15:40:56;4.30;94.10
3678;DHT22;1855;50.934;6.958;2023-01-23T15:43:23;4.30;94.40
3678;DHT22;1855;50.934;6.958;2023-01-23T15:45:50;4.30;94.50
3678;DHT22;1855;50.934;6.958;2023-01-23T15:48:18;4.30;94.80
3678;DHT22;1855;50.934;6.958;2023-01-23T15:50:45;4.20;94.80
3678;DHT22;1855;50.934;6.958;2023-01-23T15:53:12;4.20;95.00
3678;DHT22;1855;50.934;6.958;2023-01-23T15:55:41;4.20;95.00
3678;DHT22;1855;50.934;6.958;2023-01-23T15:58:10;4.10;95.00
3678;DHT22;1855;50.934;6.958;2023-01-23T16:00:38;4.10;95.40
3678;DHT22;1855;50.934;6.958;2023-01-23T16:03:05;4.00;95.70
3678;DHT22;1855;50.934;6.958;2023-01-23T16:05:34;4.00;95.70
3678;DHT22;1855;50.934;6.958;2023-01-23T16:08:02;4.00;96.00
3678;DHT22;1855;50.934;6.958;2023-01-23T16:10:34;4.00;95.80
3678;DHT22;1855;50.934;6.958;2023-01-23T16:13:03;3.90;96.00
3678;DHT22;1855;50.934;6.958;2023-01-23T16:15:33;3.90;95.90
3678;DHT22;1855;50.934;6.958;2023-01-23T16:18:00;3.90;96.00
3678;DHT22;1855;50.934;6.958;2023-01-23T16:20:31;3.90;96.30
3678;DHT22;1855;50.934;6.958;2023-01-23T16:23:00;3.80;96.20
3678;DHT22;1855;50.934;6.958;2023-01-23T16:25:30;3.80;96.40
3678;DHT22;1855;50.934;6.958;2023-01-23T16:27:57;3.80;96.50
3678;DHT22;1855;50.934;6.958;2023-01-23T16:30:26;3.80;96.60
3678;DHT22;1855;50.934;6.958;2023-01-23T16:32:54;3.80;96.70
3678;DHT22;1855;50.934;6.958;2023-01-23T16:35:22;3.70;97.00
3678;DHT22;1855;50.934;6.958;2023-01-23T16:37:50;3.80;96.80
3678;DHT22;1855;50.934;6.958;2023-01-23T16:40:21;3.70;96.90
3678;DHT22;1855;50.934;6.958;2023-01-23T16:42:49;3.70;97.00
3678;DHT22;1855;50.934;6.958;2023-01-23T16:45:19;3.70;97.00
3678;DHT22;1855;50.934;6.958;2023-01-23T16:47:48;3.60;97.10
3678;DHT22;1855;50.934;6.958;2023-01-23T16:50:17;3.60;97.20
3678;DHT22;1855;50.934;6.958;2023-01-23T16:52:49;3.60;97.60
3678;DHT22;1855;50.934;6.958;2023-01-23T16:55:20;3.60;97.70
3678;DHT22;1855;50.934;6.958;2023-01-23T16:57:48;3.60;97.70